Derby Field Lovelock US
ICAO: KLOL
IATA: LOL
Category: Medium
Scheduled Services: No

Elevation: 3904 ft
TransAlt. 18000 ft.

Airport Communications:
ASOS:120.675
OAKLAND CNTR:128.8
RENO RDO:122.4
CTAF/UNICOM:122.8

KLOL Zoom In..

If you have problems with the map follow the link
https://www.worldairports.se/pages/airport.php?
ICAO=KLOL

Runways:

(A) RW 02 length 5529 ft width 75 ft
---- / hdg 16

(B) RW 08 length 4931 ft width 75 ft
---- / hdg 76

(C) RW 20 length 5529 ft width 75 ft
---- / hdg 196

(D) RW 26 length 4931 ft width 75 ft
---- / hdg 256

Location; KLOL
Day. 18 / Time. 01.53 Zulu
* Altimeter: 29.91
* Temperature: -01° c. -30.2°f.
* Wind from: 010° Speed 08 kn.
Dewpoint: -07° c.
Visibility: 10 Statute Miles.
Clouds: Few 12000 ft.

KLOL 180153Z AUTO 01008KT 10SM FEW120 M01/M07 A2991 RMK AO2 SLP151 T10061067


Wind From 010°
Speed 08 kn.

 
 
jpsmedia.com for Web Design worldairports.se 2019   terms of use